createdAt,value
2016-08-21T00:00:41.084Z,20.37
2016-08-21T00:01:40.414Z,20.44
2016-08-21T00:02:41.161Z,20.37
2016-08-21T00:03:41.163Z,20.31
2016-08-21T00:04:41.190Z,20.31
2016-08-21T00:05:41.934Z,20.34
2016-08-21T00:06:40.531Z,20.26
2016-08-21T00:07:41.267Z,20.14
2016-08-21T00:08:41.299Z,20.03
2016-08-21T00:09:42.038Z,20.1
2016-08-21T00:10:40.642Z,20.19
2016-08-21T00:11:41.375Z,20.02
2016-08-21T00:12:41.399Z,20.04
2016-08-21T00:13:42.142Z,20.03
2016-08-21T00:14:41.446Z,19.92
2016-08-21T00:15:42.195Z,19.99
2016-08-21T00:16:40.789Z,19.92
2016-08-21T00:17:40.819Z,19.95
2016-08-21T00:18:41.555Z,19.89
2016-08-21T00:19:41.581Z,19.91
2016-08-21T00:20:40.897Z,19.89
2016-08-21T00:21:41.630Z,19.95
2016-08-21T00:22:40.949Z,19.91
2016-08-21T00:23:42.411Z,20.03
2016-08-21T00:24:41.712Z,20.03
2016-08-21T00:25:41.738Z,20.06
2016-08-21T00:26:41.758Z,20.07
2016-08-21T00:27:41.796Z,20.06
2016-08-21T00:28:42.524Z,20.11
2016-08-21T00:29:41.127Z,20.03
2016-08-21T00:30:41.867Z,20.03
2016-08-21T00:31:41.176Z,20.06
2016-08-21T00:32:42.630Z,19.95
2016-08-21T00:33:41.944Z,19.95
2016-08-21T00:34:41.967Z,19.81
2016-08-21T00:35:41.989Z,19.76
2016-08-21T00:36:42.729Z,19.77
2016-08-21T00:37:42.051Z,19.81
2016-08-21T00:38:42.073Z,19.76
2016-08-21T00:39:42.097Z,19.79
2016-08-21T00:40:42.151Z,19.81
2016-08-21T00:41:41.437Z,19.79
2016-08-21T00:42:41.461Z,19.79
2016-08-21T00:43:42.917Z,19.84
2016-08-21T00:44:42.940Z,19.77
2016-08-21T00:45:41.540Z,19.77
2016-08-21T00:46:42.279Z,19.71
2016-08-21T00:47:41.589Z,19.73
2016-08-21T00:48:41.618Z,19.74
2016-08-21T00:49:42.354Z,19.66
2016-08-21T00:50:41.668Z,19.56
2016-08-21T00:51:41.697Z,19.64
2016-08-21T00:52:43.140Z,19.56
2016-08-21T00:53:42.455Z,19.59
2016-08-21T00:54:43.188Z,19.47
2016-08-21T00:55:42.504Z,19.51
2016-08-21T00:56:42.533Z,19.49
2016-08-21T00:57:42.553Z,19.52
2016-08-21T00:58:43.291Z,19.51
2016-08-21T00:59:41.907Z,19.47
2016-08-21T01:00:42.635Z,19.45
2016-08-21T01:01:42.665Z,19.39
2016-08-21T01:02:42.708Z,19.33
2016-08-21T01:03:42.706Z,19.37
2016-08-21T01:04:42.738Z,19.39
2016-08-21T01:05:42.760Z,19.45
2016-08-21T01:06:43.494Z,19.37
2016-08-21T01:07:42.810Z,19.39
2016-08-21T01:08:42.836Z,19.34
2016-08-21T01:09:42.152Z,19.3
2016-08-21T01:10:42.174Z,19.27
2016-08-21T01:11:42.919Z,19.29
2016-08-21T01:12:43.646Z,19.15
2016-08-21T01:13:42.253Z,19.04
2016-08-21T01:14:42.286Z,19.16
2016-08-21T01:15:42.319Z,19.16
2016-08-21T01:16:42.329Z,19.15
2016-08-21T01:17:42.359Z,19.16
2016-08-21T01:18:42.381Z,19.18
2016-08-21T01:19:43.134Z,19.09
2016-08-21T01:20:43.140Z,19.09
2016-08-21T01:21:42.456Z,18.93
2016-08-21T01:22:43.185Z,19.02
2016-08-21T01:23:43.930Z,19
2016-08-21T01:24:43.235Z,19.09
2016-08-21T01:25:43.273Z,18.96
2016-08-21T01:26:42.579Z,19.02
2016-08-21T01:27:42.609Z,19
2016-08-21T01:28:43.340Z,18.93
2016-08-21T01:29:42.655Z,18.95
2016-08-21T01:30:44.099Z,18.99
2016-08-21T01:31:42.710Z,18.93
2016-08-21T01:32:43.438Z,18.95
2016-08-21T01:33:43.462Z,18.93
2016-08-21T01:34:43.502Z,19.02
2016-08-21T01:35:42.814Z,18.98
2016-08-21T01:36:44.255Z,18.98
2016-08-21T01:37:44.283Z,18.9
2016-08-21T01:38:43.587Z,18.93
2016-08-21T01:39:43.618Z,18.98
2016-08-21T01:40:43.643Z,18.95
2016-08-21T01:41:43.671Z,18.95
2016-08-21T01:42:42.981Z,18.98
2016-08-21T01:43:44.430Z,18.86
2016-08-21T01:44:43.738Z,18.95
2016-08-21T01:45:43.055Z,18.81
2016-08-21T01:46:43.792Z,18.77
2016-08-21T01:47:43.813Z,18.75
2016-08-21T01:48:43.839Z,18.74
2016-08-21T01:49:43.864Z,18.8
2016-08-21T01:50:43.891Z,18.77
2016-08-21T01:51:43.245Z,18.71
2016-08-21T01:52:43.236Z,18.62
2016-08-21T01:53:43.256Z,18.7
2016-08-21T01:54:43.990Z,18.6
2016-08-21T01:55:43.317Z,18.6
2016-08-21T01:56:44.040Z,18.6
2016-08-21T01:57:44.776Z,18.65
2016-08-21T01:58:44.088Z,18.56
2016-08-21T01:59:43.405Z,18.49
2016-08-21T02:00:43.430Z,18.41
2016-08-21T02:01:43.462Z,18.43
2016-08-21T02:02:44.200Z,18.41
2016-08-21T02:03:44.212Z,18.41
2016-08-21T02:04:44.247Z,18.43
2016-08-21T02:05:44.985Z,18.43
2016-08-21T02:06:44.302Z,18.43
2016-08-21T02:07:43.606Z,18.45
2016-08-21T02:08:43.627Z,18.53
2016-08-21T02:09:44.361Z,18.38
2016-08-21T02:10:44.387Z,18.4
2016-08-21T02:11:43.702Z,18.4
2016-08-21T02:12:44.435Z,18.34
2016-08-21T02:13:43.766Z,18.37
2016-08-21T02:14:44.500Z,18.29
2016-08-21T02:15:44.509Z,18.34
2016-08-21T02:16:44.534Z,18.23
2016-08-21T02:17:43.848Z,18.34
2016-08-21T02:18:43.874Z,18.28
2016-08-21T02:19:44.607Z,18.34
2016-08-21T02:20:44.644Z,18.34
2016-08-21T02:21:44.652Z,18.26
2016-08-21T02:22:44.689Z,18.26
2016-08-21T02:23:44.718Z,18.29
2016-08-21T02:24:44.732Z,18.26
2016-08-21T02:25:45.464Z,18.26
2016-08-21T02:26:44.778Z,18.22
2016-08-21T02:27:44.097Z,18.28
2016-08-21T02:28:44.826Z,18.18
2016-08-21T02:29:44.154Z,18.23
2016-08-21T02:30:45.582Z,18.26
2016-08-21T02:31:44.192Z,18.16
2016-08-21T02:32:44.927Z,18.16
2016-08-21T02:33:44.238Z,18.28
2016-08-21T02:34:44.972Z,18.22
2016-08-21T02:35:44.289Z,18.18
2016-08-21T02:36:45.025Z,18.15
2016-08-21T02:37:44.333Z,18.18
2016-08-21T02:38:45.091Z,18.13
2016-08-21T02:39:45.818Z,18.04
2016-08-21T02:40:45.120Z,18.1
2016-08-21T02:41:44.445Z,18.16
2016-08-21T02:42:44.474Z,18.01
2016-08-21T02:43:45.207Z,18.03
2016-08-21T02:44:45.227Z,18.08
2016-08-21T02:45:45.244Z,18.08
2016-08-21T02:46:45.272Z,18.05
2016-08-21T02:47:45.297Z,17.98
2016-08-21T02:48:45.315Z,18.04
2016-08-21T02:49:45.341Z,18.13
2016-08-21T02:50:46.073Z,18.04
2016-08-21T02:51:46.095Z,18.01
2016-08-21T02:52:46.130Z,17.92
2016-08-21T02:53:44.725Z,18.04
2016-08-21T02:54:44.753Z,18.03
2016-08-21T02:55:45.490Z,18
2016-08-21T02:56:45.508Z,17.98
2016-08-21T02:57:46.285Z,18
2016-08-21T02:58:45.556Z,18.01
2016-08-21T02:59:45.588Z,18
2016-08-21T03:00:45.605Z,17.98
2016-08-21T03:01:45.650Z,18
2016-08-21T03:02:44.943Z,18.03
2016-08-21T03:03:44.977Z,18.03
2016-08-21T03:04:45.704Z,18.03
2016-08-21T03:05:45.748Z,18.01
2016-08-21T03:06:45.751Z,17.97
2016-08-21T03:07:45.773Z,18.04
2016-08-21T03:08:46.527Z,18.04
2016-08-21T03:09:45.825Z,18.07
2016-08-21T03:10:46.561Z,18.1
2016-08-21T03:11:45.169Z,18.07
2016-08-21T03:12:46.609Z,18.05
2016-08-21T03:13:45.920Z,18.07
2016-08-21T03:14:45.233Z,18.03
2016-08-21T03:15:45.969Z,18.03
2016-08-21T03:16:46.009Z,18.07
2016-08-21T03:17:45.309Z,18.08
2016-08-21T03:18:46.044Z,18.08
2016-08-21T03:19:46.065Z,18.1
2016-08-21T03:20:46.127Z,18.07
2016-08-21T03:21:46.119Z,18.15
2016-08-21T03:22:45.431Z,18.08
2016-08-21T03:23:46.187Z,18.18
2016-08-21T03:24:46.206Z,18.2
2016-08-21T03:25:45.528Z,18.22
2016-08-21T03:26:46.238Z,18.22
2016-08-21T03:27:46.268Z,18.11
2016-08-21T03:28:47.003Z,18.18
2016-08-21T03:29:46.311Z,18.16
2016-08-21T03:30:46.332Z,18.2
2016-08-21T03:31:45.646Z,18.22
2016-08-21T03:32:46.381Z,18.19
2016-08-21T03:33:46.407Z,18.18
2016-08-21T03:34:46.428Z,18.18
2016-08-21T03:35:46.461Z,18.2
2016-08-21T03:36:47.191Z,18.19
2016-08-21T03:37:45.795Z,18.2
2016-08-21T03:38:45.816Z,18.15
2016-08-21T03:39:46.573Z,18.19
2016-08-21T03:40:46.580Z,18.18
2016-08-21T03:41:47.312Z,18.2
2016-08-21T03:42:46.623Z,18.19
2016-08-21T03:43:45.939Z,18.23
2016-08-21T03:44:45.963Z,18.19
2016-08-21T03:45:45.983Z,18.16
2016-08-21T03:46:46.725Z,18.15
2016-08-21T03:47:46.748Z,18.19
2016-08-21T03:48:46.800Z,18.13
2016-08-21T03:49:46.792Z,18.19
2016-08-21T03:50:46.122Z,18.16
2016-08-21T03:51:46.842Z,18.23
2016-08-21T03:52:47.578Z,18.19
2016-08-21T03:53:46.186Z,18.2
2016-08-21T03:54:47.627Z,18.18
2016-08-21T03:55:46.940Z,18.07
2016-08-21T03:56:46.249Z,18.18
2016-08-21T03:57:47.696Z,18.22
2016-08-21T03:58:47.022Z,18.2
2016-08-21T03:59:47.037Z,18.19
2016-08-21T04:00:46.350Z,18.2
2016-08-21T04:01:47.086Z,18.25
2016-08-21T04:02:47.824Z,18.23
2016-08-21T04:03:46.423Z,18.29
2016-08-21T04:04:47.915Z,18.26
2016-08-21T04:05:46.476Z,18.23
2016-08-21T04:06:46.497Z,18.29
2016-08-21T04:07:46.517Z,18.29
2016-08-21T04:08:47.965Z,18.25
2016-08-21T04:09:46.568Z,18.2
2016-08-21T04:10:47.310Z,18.23
2016-08-21T04:11:47.326Z,18.19
2016-08-21T04:12:47.352Z,18.16
2016-08-21T04:13:47.389Z,18.2
2016-08-21T04:14:47.397Z,18.15
2016-08-21T04:15:47.423Z,18.22
2016-08-21T04:16:46.740Z,18.15
2016-08-21T04:17:47.474Z,18.07
2016-08-21T04:18:46.787Z,18.05
2016-08-21T04:19:47.523Z,18.18
2016-08-21T04:20:47.549Z,18.08
2016-08-21T04:21:47.568Z,17.98
2016-08-21T04:22:47.596Z,17.95
2016-08-21T04:23:47.616Z,17.95
2016-08-21T04:24:48.357Z,17.94
2016-08-21T04:25:48.377Z,17.98
2016-08-21T04:26:46.991Z,17.98
2016-08-21T04:27:47.728Z,18.03
2016-08-21T04:28:47.741Z,18
2016-08-21T04:29:47.764Z,18.07
2016-08-21T04:30:47.076Z,18.04
2016-08-21T04:31:47.812Z,18.05
2016-08-21T04:32:48.558Z,18.07
2016-08-21T04:33:48.582Z,18.1
2016-08-21T04:34:47.184Z,18.11
2016-08-21T04:35:47.198Z,18.07
2016-08-21T04:36:47.238Z,18.08
2016-08-21T04:37:47.246Z,18.13
2016-08-21T04:38:47.986Z,18.23
2016-08-21T04:39:47.294Z,18.13
2016-08-21T04:40:48.758Z,18.11
2016-08-21T04:41:47.339Z,18.19
2016-08-21T04:42:47.368Z,18.19
2016-08-21T04:43:48.106Z,18.16
2016-08-21T04:44:47.416Z,18.16
2016-08-21T04:45:48.151Z,18.11
2016-08-21T04:46:47.471Z,17.98
2016-08-21T04:47:47.485Z,18
2016-08-21T04:48:48.942Z,18.07
2016-08-21T04:49:48.960Z,18.11
2016-08-21T04:50:48.275Z,18.16
2016-08-21T04:51:48.318Z,18.18
2016-08-21T04:52:48.319Z,18.2
2016-08-21T04:53:48.343Z,18.22
2016-08-21T04:54:48.376Z,18.15
2016-08-21T04:55:48.391Z,18.18
2016-08-21T04:56:49.139Z,18.18
2016-08-21T04:57:47.727Z,18.2
2016-08-21T04:58:47.761Z,18.19
2016-08-21T04:59:48.485Z,18.16
2016-08-21T05:00:48.515Z,18.26
2016-08-21T05:01:48.535Z,18.26
2016-08-21T05:02:47.857Z,18.23
2016-08-21T05:03:49.299Z,18.33
2016-08-21T05:04:48.610Z,18.19
2016-08-21T05:05:48.650Z,18.18
2016-08-21T05:06:47.945Z,18.22
2016-08-21T05:07:48.684Z,18.16
2016-08-21T05:08:47.994Z,18.15
2016-08-21T05:09:48.729Z,18.23
2016-08-21T05:10:48.758Z,18.31
2016-08-21T05:11:49.487Z,18.26
2016-08-21T05:12:48.097Z,18.16
2016-08-21T05:13:48.829Z,18.29
2016-08-21T05:14:49.580Z,18.15
2016-08-21T05:15:48.883Z,18.22
2016-08-21T05:16:49.615Z,18.29
2016-08-21T05:17:48.921Z,18.31
2016-08-21T05:18:49.659Z,18.29
2016-08-21T05:19:48.262Z,18.19
2016-08-21T05:20:48.286Z,18.26
2016-08-21T05:21:48.311Z,18.15
2016-08-21T05:22:49.054Z,18.16
2016-08-21T05:23:49.067Z,18.19
2016-08-21T05:24:49.100Z,18.25
2016-08-21T05:25:48.407Z,18.25
2016-08-21T05:26:49.140Z,18.29
2016-08-21T05:27:48.455Z,18.25
2016-08-21T05:28:49.188Z,18.19
2016-08-21T05:29:49.216Z,18.03
2016-08-21T05:30:49.248Z,17.98
2016-08-21T05:31:49.262Z,18.04
2016-08-21T05:32:50.004Z,18.07
2016-08-21T05:33:49.312Z,18.07
2016-08-21T05:34:48.628Z,18.04
2016-08-21T05:35:48.651Z,18.13
2016-08-21T05:36:50.099Z,18.2
2016-08-21T05:37:49.409Z,18.16
2016-08-21T05:38:49.466Z,18.18
2016-08-21T05:39:48.757Z,18.15
2016-08-21T05:40:49.484Z,18.25
2016-08-21T05:41:49.504Z,18.19
2016-08-21T05:42:48.818Z,18.19
2016-08-21T05:43:48.840Z,18.25
2016-08-21T05:44:48.867Z,18.28
2016-08-21T05:45:50.314Z,18.25
2016-08-21T05:46:49.635Z,18.23
2016-08-21T05:47:50.390Z,18.22
2016-08-21T05:48:48.983Z,18.25
2016-08-21T05:49:49.699Z,18.23
2016-08-21T05:50:49.722Z,18.31
2016-08-21T05:51:49.748Z,18.28
2016-08-21T05:52:50.507Z,18.38
2016-08-21T05:53:49.090Z,18.33
2016-08-21T05:54:49.819Z,18.23
2016-08-21T05:55:49.135Z,18.25
2016-08-21T05:56:50.575Z,18.28
2016-08-21T05:57:49.894Z,18.31
2016-08-21T05:58:49.214Z,18.37
2016-08-21T05:59:49.230Z,18.4
2016-08-21T06:00:50.679Z,18.35
2016-08-21T06:01:50.023Z,18.37
2016-08-21T06:02:49.316Z,18.4
2016-08-21T06:03:50.040Z,18.37
2016-08-21T06:04:50.064Z,18.44
2016-08-21T06:05:49.374Z,18.35
2016-08-21T06:06:50.824Z,18.4
2016-08-21T06:07:50.846Z,18.44
2016-08-21T06:08:50.884Z,18.49
2016-08-21T06:09:50.275Z,18.53
2016-08-21T06:10:49.499Z,18.44
2016-08-21T06:11:49.543Z,18.53
2016-08-21T06:12:50.254Z,18.52
2016-08-21T06:13:50.995Z,18.5
2016-08-21T06:14:50.304Z,18.44
2016-08-21T06:15:50.330Z,18.49
2016-08-21T06:16:49.646Z,18.53
2016-08-21T06:17:51.103Z,18.53
2016-08-21T06:18:50.404Z,18.53
2016-08-21T06:19:49.726Z,18.52
2016-08-21T06:20:50.454Z,18.55
2016-08-21T06:21:51.188Z,18.56
2016-08-21T06:22:50.502Z,18.52
2016-08-21T06:23:50.523Z,18.63
2016-08-21T06:24:50.548Z,18.58
2016-08-21T06:25:50.673Z,18.65
2016-08-21T06:26:50.599Z,18.66
2016-08-21T06:27:49.917Z,18.75
2016-08-21T06:28:49.938Z,18.73
2016-08-21T06:29:50.675Z,18.78
2016-08-21T06:30:50.711Z,18.74
2016-08-21T06:31:51.529Z,18.83
2016-08-21T06:32:51.457Z,18.78
2016-08-21T06:33:50.769Z,18.77
2016-08-21T06:34:51.507Z,18.81
2016-08-21T06:35:50.106Z,18.81
2016-08-21T06:36:51.556Z,18.84
2016-08-21T06:37:50.157Z,18.92
2016-08-21T06:38:50.181Z,18.9
2016-08-21T06:40:05.094Z,18.81
2016-08-21T06:40:50.959Z,18.81
2016-08-21T06:41:51.692Z,18.86
2016-08-21T06:42:50.991Z,18.81
2016-08-21T06:43:51.740Z,18.86
2016-08-21T06:44:51.041Z,18.95
2016-08-21T06:45:51.065Z,18.86
2016-08-21T06:46:50.375Z,18.96
2016-08-21T06:47:51.128Z,18.96
2016-08-21T06:48:50.428Z,18.92
2016-08-21T06:49:51.161Z,18.95
2016-08-21T06:50:51.185Z,18.9
2016-08-21T06:51:51.206Z,18.95
2016-08-21T06:52:50.533Z,18.93
2016-08-21T06:53:51.255Z,19
2016-08-21T06:54:51.289Z,18.95
2016-08-21T06:55:51.308Z,18.92
2016-08-21T06:56:52.050Z,18.99
2016-08-21T06:57:51.360Z,18.93
2016-08-21T06:58:51.385Z,19.02
2016-08-21T06:59:51.422Z,19.04
2016-08-21T07:00:50.727Z,19.08
2016-08-21T07:01:50.758Z,19.07
2016-08-21T07:02:50.770Z,18.98
2016-08-21T07:03:50.796Z,19.04
2016-08-21T07:04:51.546Z,18.96
2016-08-21T07:05:51.558Z,19.07
2016-08-21T07:06:50.867Z,19.12
2016-08-21T07:07:51.604Z,19.11
2016-08-21T07:08:52.342Z,19.11
2016-08-21T07:09:50.951Z,19.19
2016-08-21T07:10:51.679Z,19.08
2016-08-21T07:11:51.713Z,19.15
2016-08-21T07:12:52.442Z,19.15
2016-08-21T07:13:51.056Z,19.19
2016-08-21T07:14:51.777Z,19.26
2016-08-21T07:15:51.816Z,19.31
2016-08-21T07:16:51.830Z,19.31
2016-08-21T07:17:51.853Z,19.3
2016-08-21T07:18:51.880Z,19.33
2016-08-21T07:19:51.909Z,19.36
2016-08-21T07:20:51.217Z,19.31
2016-08-21T07:21:51.950Z,19.39
2016-08-21T07:22:51.990Z,19.41
2016-08-21T07:23:52.713Z,19.39
2016-08-21T07:24:52.029Z,19.36
2016-08-21T07:25:52.762Z,19.36
2016-08-21T07:26:52.074Z,19.34
2016-08-21T07:27:52.812Z,19.36
2016-08-21T07:28:51.417Z,19.39
2016-08-21T07:29:52.155Z,19.39
2016-08-21T07:30:52.177Z,19.47
2016-08-21T07:31:52.209Z,19.52
2016-08-21T07:32:51.515Z,19.54
2016-08-21T07:33:51.544Z,19.67
2016-08-21T07:34:51.569Z,19.58
2016-08-21T07:35:52.321Z,19.56
2016-08-21T07:36:52.329Z,19.67
2016-08-21T07:37:51.640Z,19.64
2016-08-21T07:38:52.386Z,19.66
2016-08-21T07:39:52.401Z,19.7
2016-08-21T07:40:52.427Z,19.76
2016-08-21T07:41:51.746Z,19.64
2016-08-21T07:42:53.191Z,19.64
2016-08-21T07:43:52.504Z,19.69
2016-08-21T07:44:52.529Z,19.74
2016-08-21T07:45:52.555Z,19.69
2016-08-21T07:46:51.866Z,19.73
2016-08-21T07:47:51.896Z,19.81
2016-08-21T07:48:51.925Z,19.84
2016-08-21T07:49:52.662Z,19.92
2016-08-21T07:50:52.687Z,19.95
2016-08-21T07:51:52.709Z,19.96
2016-08-21T07:52:52.022Z,19.99
2016-08-21T07:53:52.056Z,19.99
2016-08-21T07:54:53.493Z,19.99
2016-08-21T07:55:52.096Z,20.06
2016-08-21T07:56:52.122Z,20.09
2016-08-21T07:57:52.855Z,20.07
2016-08-21T07:58:52.173Z,20.06
2016-08-21T07:59:52.199Z,20.02
2016-08-21T08:00:52.244Z,20.11
2016-08-21T08:01:52.959Z,20.03
2016-08-21T08:02:52.985Z,20.06
2016-08-21T08:03:52.299Z,20.06
2016-08-21T08:04:53.033Z,20.07
2016-08-21T08:05:53.061Z,20
2016-08-21T08:06:53.088Z,20.03
2016-08-21T08:07:52.411Z,20.1
2016-08-21T08:08:53.137Z,20.03
2016-08-21T08:09:52.465Z,20.21
2016-08-21T08:10:53.187Z,20.25
2016-08-21T08:11:52.504Z,20.18
2016-08-21T08:12:53.238Z,20.24
2016-08-21T08:13:53.266Z,20.25
2016-08-21T08:14:54.018Z,20.24
2016-08-21T08:15:54.034Z,20.32
2016-08-21T08:16:53.347Z,20.24
2016-08-21T08:17:52.663Z,20.21
2016-08-21T08:18:52.681Z,20.34
2016-08-21T08:19:54.124Z,20.36
2016-08-21T08:20:53.452Z,20.34
2016-08-21T08:21:53.466Z,20.36
2016-08-21T08:22:53.495Z,20.34
2016-08-21T08:23:52.808Z,20.28
2016-08-21T08:24:54.255Z,20.31
2016-08-21T08:25:53.574Z,20.32
2016-08-21T08:26:54.311Z,20.41
2016-08-21T08:27:53.622Z,20.44
2016-08-21T08:28:53.651Z,20.43
2016-08-21T08:29:54.387Z,20.43
2016-08-21T08:30:53.704Z,20.36
2016-08-21T08:31:53.015Z,20.37
2016-08-21T08:32:53.753Z,20.37
2016-08-21T08:33:53.786Z,20.31
2016-08-21T08:34:54.511Z,20.31
2016-08-21T08:35:54.537Z,20.34
2016-08-21T08:36:53.851Z,20.32
2016-08-21T08:37:53.169Z,20.39
2016-08-21T08:38:54.617Z,20.36
2016-08-21T08:39:53.956Z,20.44
2016-08-21T08:40:53.956Z,20.37
2016-08-21T08:41:53.986Z,20.37
2016-08-21T08:42:54.010Z,20.34
2016-08-21T08:43:54.051Z,20.41
2016-08-21T08:44:54.063Z,20.36
2016-08-21T08:45:54.086Z,20.43
2016-08-21T08:46:53.404Z,20.43
2016-08-21T08:47:54.145Z,20.41
2016-08-21T08:48:53.454Z,20.4
2016-08-21T08:49:54.194Z,20.43
2016-08-21T08:50:54.220Z,20.39
2016-08-21T08:51:54.242Z,20.52
2016-08-21T08:52:53.557Z,20.52
2016-08-21T08:53:54.291Z,20.5
2016-08-21T08:54:54.337Z,20.58
2016-08-21T08:55:55.057Z,20.47
2016-08-21T08:56:54.366Z,20.56
2016-08-21T08:57:54.395Z,20.58
2016-08-21T08:58:55.132Z,20.58
2016-08-21T08:59:54.447Z,20.55
2016-08-21T09:00:54.479Z,20.56
2016-08-21T09:01:53.798Z,20.65
2016-08-21T09:02:53.831Z,20.65
2016-08-21T09:03:54.547Z,20.67
2016-08-21T09:04:54.576Z,20.66
2016-08-21T09:05:55.313Z,20.67
2016-08-21T09:06:54.628Z,20.62
2016-08-21T09:07:54.655Z,20.52
2016-08-21T09:08:54.680Z,20.59
2016-08-21T09:09:53.996Z,20.63
2016-08-21T09:10:54.021Z,20.59
2016-08-21T09:11:54.776Z,20.6
2016-08-21T09:12:54.782Z,20.59
2016-08-21T09:13:54.812Z,20.66
2016-08-21T09:14:55.551Z,20.69
2016-08-21T09:15:55.570Z,20.65
2016-08-21T09:16:54.176Z,20.56
2016-08-21T09:17:54.200Z,20.55
2016-08-21T09:18:54.939Z,20.6
2016-08-21T09:19:54.983Z,20.55
2016-08-21T09:20:54.289Z,20.56
2016-08-21T09:21:55.020Z,20.6
2016-08-21T09:22:55.041Z,20.6
2016-08-21T09:23:55.069Z,20.56
2016-08-21T09:24:54.392Z,20.52
2016-08-21T09:25:55.846Z,20.56
2016-08-21T09:26:55.161Z,20.55
2016-08-21T09:27:55.170Z,20.62
2016-08-21T09:28:55.193Z,20.5
2016-08-21T09:29:55.223Z,20.62
2016-08-21T09:30:54.538Z,20.63
2016-08-21T09:31:55.988Z,20.66
2016-08-21T09:32:55.308Z,20.63
2016-08-21T09:33:55.325Z,20.65
2016-08-21T09:34:55.361Z,20.65
2016-08-21T09:35:55.376Z,20.75
2016-08-21T09:36:55.403Z,20.75
2016-08-21T09:37:55.430Z,20.74
2016-08-21T09:38:55.459Z,20.52
2016-08-21T09:39:54.776Z,20.66
2016-08-21T09:40:55.558Z,20.7
2016-08-21T09:41:55.532Z,20.7
2016-08-21T09:42:55.577Z,20.7
2016-08-21T09:43:56.291Z,20.77
2016-08-21T09:44:55.607Z,20.66
2016-08-21T09:45:54.926Z,20.69
2016-08-21T09:46:54.951Z,20.65
2016-08-21T09:47:54.980Z,20.63
2016-08-21T09:48:55.004Z,20.65
2016-08-21T09:49:56.447Z,20.67
2016-08-21T09:50:55.059Z,20.72
2016-08-21T09:51:55.795Z,20.65
2016-08-21T09:52:56.527Z,20.65
2016-08-21T09:53:56.552Z,20.69
2016-08-21T09:54:55.870Z,20.77
2016-08-21T09:55:56.616Z,20.77
2016-08-21T09:56:55.920Z,20.7
2016-08-21T09:57:56.657Z,20.7
2016-08-21T09:58:55.262Z,20.7
2016-08-21T09:59:55.302Z,20.72
2016-08-21T10:00:55.314Z,20.8
2016-08-21T10:01:56.059Z,20.87
2016-08-21T10:02:55.366Z,20.78
2016-08-21T10:03:56.105Z,20.72
2016-08-21T10:04:56.839Z,20.77
2016-08-21T10:05:55.443Z,20.69
2016-08-21T10:06:56.180Z,20.69
2016-08-21T10:07:55.497Z,20.69
2016-08-21T10:08:56.228Z,20.72
2016-08-21T10:09:56.966Z,20.81
2016-08-21T10:10:56.992Z,20.81
2016-08-21T10:11:57.025Z,20.72
2016-08-21T10:12:56.333Z,20.8
2016-08-21T10:13:57.065Z,20.72
2016-08-21T10:14:55.682Z,20.84
2016-08-21T10:15:56.409Z,20.78
2016-08-21T10:16:55.752Z,20.78
2016-08-21T10:17:55.750Z,20.8
2016-08-21T10:18:55.779Z,20.77
2016-08-21T10:19:57.227Z,20.78
2016-08-21T10:20:56.561Z,20.77
2016-08-21T10:21:56.568Z,20.72
2016-08-21T10:22:57.307Z,20.66
2016-08-21T10:23:55.910Z,20.7
2016-08-21T10:24:55.933Z,20.65
2016-08-21T10:25:56.672Z,20.78
2016-08-21T10:26:55.988Z,20.72
2016-08-21T10:27:56.718Z,20.75
2016-08-21T10:28:56.756Z,20.7
2016-08-21T10:29:56.070Z,20.7
2016-08-21T10:30:57.510Z,20.66
2016-08-21T10:31:57.127Z,20.72
2016-08-21T10:32:56.848Z,20.7
2016-08-21T10:33:56.878Z,20.72
2016-08-21T10:34:56.901Z,20.7
2016-08-21T10:35:56.933Z,20.78
2016-08-21T10:36:56.952Z,20.81
2016-08-21T10:37:56.288Z,20.81
2016-08-21T10:38:56.297Z,20.82
2016-08-21T10:39:57.032Z,20.85
2016-08-21T10:40:57.060Z,20.88
2016-08-21T10:41:56.377Z,20.8
2016-08-21T10:42:56.398Z,20.8
2016-08-21T10:43:57.856Z,20.88
2016-08-21T10:44:57.161Z,20.84
2016-08-21T10:45:57.899Z,20.78
2016-08-21T10:46:57.933Z,20.8
2016-08-21T10:47:57.947Z,20.9
2016-08-21T10:48:57.284Z,20.93
2016-08-21T10:49:56.578Z,20.88
2016-08-21T10:50:57.316Z,20.84
2016-08-21T10:51:57.350Z,20.88
2016-08-21T10:52:57.373Z,20.87
2016-08-21T10:53:56.685Z,20.85
2016-08-21T10:54:57.440Z,20.81
2016-08-21T10:55:57.448Z,20.81
2016-08-21T10:56:56.763Z,20.75
2016-08-21T10:57:57.501Z,20.84
2016-08-21T10:58:57.525Z,20.78
2016-08-21T10:59:57.562Z,20.77
2016-08-21T11:00:56.865Z,20.78
2016-08-21T11:01:58.313Z,20.7
2016-08-21T11:02:56.918Z,20.78
2016-08-21T11:03:57.660Z,20.72
2016-08-21T11:04:58.391Z,20.75
2016-08-21T11:05:57.707Z,20.85
2016-08-21T11:06:57.024Z,20.75
2016-08-21T11:07:57.047Z,20.84
2016-08-21T11:08:57.780Z,20.85
2016-08-21T11:09:58.525Z,20.9
2016-08-21T11:10:57.840Z,20.92
2016-08-21T11:11:57.861Z,20.93
2016-08-21T11:12:57.182Z,21
2016-08-21T11:13:58.620Z,20.88
2016-08-21T11:14:59.437Z,20.93
2016-08-21T11:15:57.961Z,20.96
2016-08-21T11:16:57.282Z,20.97
2016-08-21T11:17:58.729Z,20.93
2016-08-21T11:18:57.331Z,20.96
2016-08-21T11:19:57.362Z,20.99
2016-08-21T11:20:57.384Z,20.88
2016-08-21T11:21:58.129Z,20.92
2016-08-21T11:22:58.863Z,20.92
2016-08-21T11:23:58.883Z,20.9
2016-08-21T11:24:58.199Z,20.81
2016-08-21T11:25:58.244Z,20.82
2016-08-21T11:26:58.251Z,20.82
2016-08-21T11:27:58.991Z,20.8
2016-08-21T11:28:58.320Z,20.9
2016-08-21T11:29:57.626Z,20.85
2016-08-21T11:30:58.354Z,20.82
2016-08-21T11:31:58.381Z,20.8
2016-08-21T11:32:58.408Z,20.81
2016-08-21T11:33:57.748Z,20.77
2016-08-21T11:34:59.169Z,20.8
2016-08-21T11:35:58.485Z,20.7
2016-08-21T11:36:58.514Z,20.78
2016-08-21T11:37:58.538Z,20.82
2016-08-21T11:38:59.283Z,20.81
2016-08-21T11:39:58.594Z,20.78
2016-08-21T11:40:57.905Z,20.77
2016-08-21T11:41:58.644Z,20.8
2016-08-21T11:42:57.969Z,20.78
2016-08-21T11:43:58.701Z,20.85
2016-08-21T11:44:58.719Z,20.92
2016-08-21T11:45:58.747Z,20.92
2016-08-21T11:46:58.063Z,21
2016-08-21T11:47:59.510Z,20.99
2016-08-21T11:48:58.178Z,21.02
2016-08-21T11:49:58.860Z,21
2016-08-21T11:50:59.597Z,21.15
2016-08-21T11:51:58.909Z,21.12
2016-08-21T11:52:58.220Z,21.15
2016-08-21T11:53:59.661Z,21.3
2016-08-21T11:54:58.273Z,21.3
2016-08-21T11:55:59.721Z,21.3
2016-08-21T11:56:59.033Z,21.36
2016-08-21T11:57:59.059Z,21.5
2016-08-21T11:58:58.427Z,21.45
2016-08-21T11:59:59.111Z,21.54
2016-08-21T12:00:58.425Z,21.5
2016-08-21T12:01:58.607Z,21.61
2016-08-21T12:02:59.900Z,21.58
2016-08-21T12:03:59.367Z,21.54
2016-08-21T12:04:58.536Z,21.51
2016-08-21T12:05:58.565Z,21.61
2016-08-21T12:06:59.296Z,21.67
2016-08-21T12:07:59.337Z,21.66
2016-08-21T12:08:58.647Z,21.75
2016-08-21T12:09:58.669Z,21.75
2016-08-21T12:11:00.112Z,21.83
2016-08-21T12:11:59.446Z,21.82
2016-08-21T12:12:58.751Z,21.77
2016-08-21T12:13:59.481Z,21.76
2016-08-21T12:14:58.793Z,21.77
2016-08-21T12:15:59.537Z,21.91
2016-08-21T12:16:58.853Z,21.72
2016-08-21T12:17:58.893Z,21.69
2016-08-21T12:19:00.366Z,21.69
2016-08-21T12:19:59.659Z,21.77
2016-08-21T12:20:59.669Z,21.8
2016-08-21T12:21:58.985Z,21.96
2016-08-21T12:22:59.769Z,21.93
2016-08-21T12:23:59.042Z,22.02
2016-08-21T12:25:00.493Z,22.08
2016-08-21T12:25:59.095Z,22.2
2016-08-21T12:26:59.844Z,22.28
2016-08-21T12:28:00.587Z,22.39
2016-08-21T12:29:00.629Z,22.54
2016-08-21T12:29:59.917Z,22.57
2016-08-21T12:30:59.312Z,22.63
2016-08-21T12:31:59.996Z,22.63
2016-08-21T12:32:59.435Z,22.63
2016-08-21T12:34:00.729Z,22.73
2016-08-21T12:34:59.494Z,22.83
2016-08-21T12:36:00.858Z,22.98
2016-08-21T12:37:00.812Z,23.02
2016-08-21T12:37:59.428Z,23.06
2016-08-21T12:39:00.155Z,23.1
2016-08-21T12:40:00.219Z,23.2
2016-08-21T12:40:59.564Z,23.27
2016-08-21T12:42:00.262Z,23.23
2016-08-21T12:43:01.125Z,23.28
2016-08-21T12:44:01.049Z,23.47
2016-08-21T12:44:59.652Z,23.56
2016-08-21T12:46:01.063Z,23.44
2016-08-21T12:46:59.711Z,23.4
2016-08-21T12:48:00.404Z,23.47
2016-08-21T12:49:01.174Z,23.44
2016-08-21T12:50:00.466Z,23.5
2016-08-21T12:51:00.482Z,23.46
2016-08-21T12:52:00.531Z,23.58
2016-08-21T12:53:00.554Z,23.59
2016-08-21T12:53:59.991Z,23.5
2016-08-21T12:55:00.082Z,23.48
2016-08-21T12:56:00.622Z,23.62
2016-08-21T12:57:01.001Z,23.62